sensor_id;sensor_type;location;lat;lon;timestamp;pressure;altitude;pressure_sealevel;temperature;humidity
29907;BME280;16776;50.958;10.994;2022-09-09T00:00:19;98040.66;;;14.34;100.00
29907;BME280;16776;50.958;10.994;2022-09-09T00:02:55;98018.09;;;14.36;100.00
29907;BME280;16776;50.958;10.994;2022-09-09T00:05:29;98029.44;;;14.34;100.00
29907;BME280;16776;50.958;10.994;2022-09-09T00:07:59;98025.41;;;14.28;100.00
29907;BME280;16776;50.958;10.994;2022-09-09T00:10:30;98031.59;;;14.26;100.00
29907;BME280;16776;50.958;10.994;2022-09-09T00:13:08;98004.50;;;14.15;100.00
29907;BME280;16776;50.958;10.994;2022-09-09T00:15:47;98026.25;;;14.29;100.00
29907;BME280;16776;50.958;10.994;2022-09-09T00:18:23;98029.69;;;14.29;100.00
29907;BME280;16776;50.958;10.994;2022-09-09T00:20:55;98029.75;;;14.28;100.00
29907;BME280;16776;50.958;10.994;2022-09-09T00:23:25;98025.59;;;14.25;100.00
29907;BME280;16776;50.958;10.994;2022-09-09T00:26:00;98029.63;;;14.31;100.00
29907;BME280;16776;50.958;10.994;2022-09-09T00:28:32;98027.88;;;14.31;100.00
29907;BME280;16776;50.958;10.994;2022-09-09T00:31:04;98022.63;;;14.33;100.00
29907;BME280;16776;50.958;10.994;2022-09-09T00:33:34;98029.63;;;14.31;100.00
29907;BME280;16776;50.958;10.994;2022-09-09T00:36:01;98007.41;;;14.27;100.00
29907;BME280;16776;50.958;10.994;2022-09-09T00:38:32;98012.91;;;14.36;100.00
29907;BME280;16776;50.958;10.994;2022-09-09T00:41:04;98015.44;;;14.38;100.00
29907;BME280;16776;50.958;10.994;2022-09-09T00:43:36;98005.06;;;14.38;100.00
29907;BME280;16776;50.958;10.994;2022-09-09T00:46:34;97997.78;;;14.46;100.00
29907;BME280;16776;50.958;10.994;2022-09-09T00:49:19;97993.88;;;14.37;100.00
29907;BME280;16776;50.958;10.994;2022-09-09T00:51:54;98005.16;;;14.36;100.00
29907;BME280;16776;50.958;10.994;2022-09-09T00:54:34;97998.88;;;14.40;100.00
29907;BME280;16776;50.958;10.994;2022-09-09T00:57:14;98002.31;;;14.41;100.00
29907;BME280;16776;50.958;10.994;2022-09-09T00:59:47;97993.88;;;14.37;100.00
29907;BME280;16776;50.958;10.994;2022-09-09T01:02:21;97995.56;;;14.38;100.00
29907;BME280;16776;50.958;10.994;2022-09-09T01:04:51;97992.34;;;14.33;100.00
29907;BME280;16776;50.958;10.994;2022-09-09T01:07:18;97991.44;;;14.34;100.00
29907;BME280;16776;50.958;10.994;2022-09-09T01:09:52;97988.63;;;14.39;100.00
29907;BME280;16776;50.958;10.994;2022-09-09T01:12:25;97998.16;;;14.38;100.00
29907;BME280;16776;50.958;10.994;2022-09-09T01:15:00;97998.97;;;14.39;100.00
29907;BME280;16776;50.958;10.994;2022-09-09T01:17:32;97984.88;;;14.27;100.00
29907;BME280;16776;50.958;10.994;2022-09-09T01:20:09;98003.00;;;14.44;100.00
29907;BME280;16776;50.958;10.994;2022-09-09T01:22:40;98005.66;;;14.43;100.00
29907;BME280;16776;50.958;10.994;2022-09-09T01:25:29;98004.28;;;14.53;100.00
29907;BME280;16776;50.958;10.994;2022-09-09T01:28:01;98003.63;;;14.49;100.00
29907;BME280;16776;50.958;10.994;2022-09-09T01:30:30;98001.81;;;14.51;100.00
29907;BME280;16776;50.958;10.994;2022-09-09T01:32:59;97997.34;;;14.53;100.00
29907;BME280;16776;50.958;10.994;2022-09-09T01:35:35;98012.34;;;14.64;100.00
29907;BME280;16776;50.958;10.994;2022-09-09T01:38:03;98010.75;;;14.61;100.00
29907;BME280;16776;50.958;10.994;2022-09-09T01:40:31;98010.69;;;14.63;100.00
29907;BME280;16776;50.958;10.994;2022-09-09T01:42:59;98010.44;;;14.68;100.00
29907;BME280;16776;50.958;10.994;2022-09-09T01:45:26;98007.75;;;14.69;100.00
29907;BME280;16776;50.958;10.994;2022-09-09T01:47:52;98006.00;;;14.70;100.00
29907;BME280;16776;50.958;10.994;2022-09-09T01:50:19;98006.75;;;14.72;100.00
29907;BME280;16776;50.958;10.994;2022-09-09T01:52:49;98008.84;;;14.81;100.00
29907;BME280;16776;50.958;10.994;2022-09-09T01:55:17;98008.00;;;14.80;100.00
29907;BME280;16776;50.958;10.994;2022-09-09T01:57:52;98007.59;;;14.88;100.00
29907;BME280;16776;50.958;10.994;2022-09-09T02:00:23;98013.56;;;14.90;100.00
29907;BME280;16776;50.958;10.994;2022-09-09T02:02:59;98012.97;;;15.00;100.00
29907;BME280;16776;50.958;10.994;2022-09-09T02:05:34;98008.53;;;15.02;100.00
29907;BME280;16776;50.958;10.994;2022-09-09T02:08:06;98005.84;;;15.04;100.00
29907;BME280;16776;50.958;10.994;2022-09-09T02:10:38;97996.56;;;15.00;100.00
29907;BME280;16776;50.958;10.994;2022-09-09T02:13:11;98012.56;;;15.08;100.00
29907;BME280;16776;50.958;10.994;2022-09-09T02:15:44;98010.53;;;15.13;100.00
29907;BME280;16776;50.958;10.994;2022-09-09T02:18:13;98017.47;;;15.13;100.00
29907;BME280;16776;50.958;10.994;2022-09-09T02:20:41;98013.88;;;15.15;100.00
29907;BME280;16776;50.958;10.994;2022-09-09T02:23:10;97999.41;;;15.11;100.00
29907;BME280;16776;50.958;10.994;2022-09-09T02:25:38;98018.06;;;15.18;100.00
29907;BME280;16776;50.958;10.994;2022-09-09T02:28:07;98010.19;;;15.19;100.00
29907;BME280;16776;50.958;10.994;2022-09-09T02:30:37;98020.31;;;15.24;100.00
29907;BME280;16776;50.958;10.994;2022-09-09T02:33:07;98027.25;;;15.23;100.00
29907;BME280;16776;50.958;10.994;2022-09-09T02:35:35;98022.25;;;15.20;100.00
29907;BME280;16776;50.958;10.994;2022-09-09T02:38:06;98013.88;;;15.15;100.00
29907;BME280;16776;50.958;10.994;2022-09-09T02:40:34;98013.72;;;15.18;100.00
29907;BME280;16776;50.958;10.994;2022-09-09T02:43:00;98017.63;;;15.25;100.00
29907;BME280;16776;50.958;10.994;2022-09-09T02:45:31;98030.28;;;15.31;100.00
29907;BME280;16776;50.958;10.994;2022-09-09T02:48:02;98018.09;;;15.33;100.00
29907;BME280;16776;50.958;10.994;2022-09-09T02:50:39;98017.47;;;15.28;100.00
29907;BME280;16776;50.958;10.994;2022-09-09T02:53:13;98019.13;;;15.29;100.00
29907;BME280;16776;50.958;10.994;2022-09-09T02:55:46;98017.25;;;15.33;100.00
29907;BME280;16776;50.958;10.994;2022-09-09T02:58:16;98013.94;;;15.29;100.00
29907;BME280;16776;50.958;10.994;2022-09-09T03:00:45;98010.63;;;15.27;100.00
29907;BME280;16776;50.958;10.994;2022-09-09T03:03:12;98007.25;;;15.25;100.00
29907;BME280;16776;50.958;10.994;2022-09-09T03:05:42;98006.16;;;15.29;100.00
29907;BME280;16776;50.958;10.994;2022-09-09T03:08:09;98013.22;;;15.27;100.00
29907;BME280;16776;50.958;10.994;2022-09-09T03:10:35;98012.19;;;15.30;100.00
29907;BME280;16776;50.958;10.994;2022-09-09T03:13:02;97991.13;;;15.20;100.00
29907;BME280;16776;50.958;10.994;2022-09-09T03:15:30;98014.59;;;15.34;100.00
29907;BME280;16776;50.958;10.994;2022-09-09T03:17:57;98016.25;;;15.35;100.00
29907;BME280;16776;50.958;10.994;2022-09-09T03:20:25;98028.28;;;15.36;100.00
29907;BME280;16776;50.958;10.994;2022-09-09T03:22:54;98017.75;;;15.39;100.00
29907;BME280;16776;50.958;10.994;2022-09-09T03:25:22;98021.44;;;15.35;100.00
29907;BME280;16776;50.958;10.994;2022-09-09T03:27:49;98018.09;;;15.33;100.00
29907;BME280;16776;50.958;10.994;2022-09-09T03:30:15;98025.91;;;15.32;100.00
29907;BME280;16776;50.958;10.994;2022-09-09T03:32:42;98023.41;;;15.30;100.00
29907;BME280;16776;50.958;10.994;2022-09-09T03:35:08;98012.38;;;15.27;100.00
29907;BME280;16776;50.958;10.994;2022-09-09T03:37:35;98011.69;;;15.23;100.00
29907;BME280;16776;50.958;10.994;2022-09-09T03:40:03;98016.78;;;15.25;100.00
29907;BME280;16776;50.958;10.994;2022-09-09T03:42:31;98023.94;;;15.21;100.00
29907;BME280;16776;50.958;10.994;2022-09-09T03:44:57;98017.91;;;15.21;100.00
29907;BME280;16776;50.958;10.994;2022-09-09T03:47:26;98024.78;;;15.22;100.00
29907;BME280;16776;50.958;10.994;2022-09-09T03:49:53;98025.59;;;15.22;100.00
29907;BME280;16776;50.958;10.994;2022-09-09T03:52:20;98016.16;;;15.21;100.00
29907;BME280;16776;50.958;10.994;2022-09-09T03:54:50;98001.50;;;15.20;100.00
29907;BME280;16776;50.958;10.994;2022-09-09T03:57:18;98005.66;;;15.23;100.00
29907;BME280;16776;50.958;10.994;2022-09-09T03:59:44;98017.06;;;15.20;100.00
29907;BME280;16776;50.958;10.994;2022-09-09T04:02:11;98007.53;;;15.21;100.00
29907;BME280;16776;50.958;10.994;2022-09-09T04:04:37;98010.28;;;15.18;100.00
29907;BME280;16776;50.958;10.994;2022-09-09T04:07:04;98004.69;;;15.10;100.00
29907;BME280;16776;50.958;10.994;2022-09-09T04:09:32;98005.34;;;15.13;100.00
29907;BME280;16776;50.958;10.994;2022-09-09T04:11:58;98007.19;;;15.11;100.00
29907;BME280;16776;50.958;10.994;2022-09-09T04:14:26;98007.03;;;15.14;100.00
29907;BME280;16776;50.958;10.994;2022-09-09T04:16:54;98011.44;;;15.12;100.00
29907;BME280;16776;50.958;10.994;2022-09-09T04:19:22;98010.53;;;15.13;100.00
29907;BME280;16776;50.958;10.994;2022-09-09T04:21:49;98009.53;;;15.16;100.00
29907;BME280;16776;50.958;10.994;2022-09-09T04:24:17;98005.94;;;15.18;100.00
29907;BME280;16776;50.958;10.994;2022-09-09T04:26:44;97999.75;;;15.21;100.00
29907;BME280;16776;50.958;10.994;2022-09-09T04:29:10;97998.72;;;15.23;100.00
29907;BME280;16776;50.958;10.994;2022-09-09T04:31:38;97997.16;;;15.21;100.00
29907;BME280;16776;50.958;10.994;2022-09-09T04:34:07;97988.25;;;15.25;100.00
29907;BME280;16776;50.958;10.994;2022-09-09T04:36:33;97992.16;;;15.33;100.00
29907;BME280;16776;50.958;10.994;2022-09-09T04:39:00;97995.31;;;15.38;100.00
29907;BME280;16776;50.958;10.994;2022-09-09T04:41:27;97991.81;;;15.39;100.00
29907;BME280;16776;50.958;10.994;2022-09-09T04:43:56;98007.84;;;15.46;100.00
29907;BME280;16776;50.958;10.994;2022-09-09T04:46:24;97999.16;;;15.47;100.00
29907;BME280;16776;50.958;10.994;2022-09-09T04:48:52;98005.56;;;15.56;100.00
29907;BME280;16776;50.958;10.994;2022-09-09T04:51:19;98005.31;;;15.60;100.00
29907;BME280;16776;50.958;10.994;2022-09-09T04:53:45;98008.56;;;15.64;100.00
29907;BME280;16776;50.958;10.994;2022-09-09T04:56:14;98015.44;;;15.65;100.00
29907;BME280;16776;50.958;10.994;2022-09-09T04:58:42;98012.34;;;15.58;100.00
29907;BME280;16776;50.958;10.994;2022-09-09T05:01:10;98017.06;;;15.52;100.00
29907;BME280;16776;50.958;10.994;2022-09-09T05:03:37;98017.56;;;15.42;100.00
29907;BME280;16776;50.958;10.994;2022-09-09T05:06:09;98019.59;;;15.37;100.00
29907;BME280;16776;50.958;10.994;2022-09-09T05:08:37;98028.09;;;15.24;100.00
29907;BME280;16776;50.958;10.994;2022-09-09T05:11:11;98024.25;;;15.15;100.00
29907;BME280;16776;50.958;10.994;2022-09-09T05:13:38;98030.78;;;15.07;100.00
29907;BME280;16776;50.958;10.994;2022-09-09T05:16:05;98028.44;;;15.02;100.00
29907;BME280;16776;50.958;10.994;2022-09-09T05:18:31;98023.59;;;14.96;100.00
29907;BME280;16776;50.958;10.994;2022-09-09T05:20:58;98029.09;;;14.90;100.00
29907;BME280;16776;50.958;10.994;2022-09-09T05:23:27;98027.50;;;14.87;100.00
29907;BME280;16776;50.958;10.994;2022-09-09T05:25:55;98038.13;;;14.83;100.00
29907;BME280;16776;50.958;10.994;2022-09-09T05:28:22;98035.94;;;14.75;100.00
29907;BME280;16776;50.958;10.994;2022-09-09T05:30:55;98034.94;;;14.78;100.00
29907;BME280;16776;50.958;10.994;2022-09-09T05:33:22;98031.22;;;14.66;100.00
29907;BME280;16776;50.958;10.994;2022-09-09T05:35:55;97992.50;;;14.47;100.00
29907;BME280;16776;50.958;10.994;2022-09-09T05:38:22;98033.31;;;14.59;100.00
29907;BME280;16776;50.958;10.994;2022-09-09T05:40:52;98010.47;;;14.50;100.00
29907;BME280;16776;50.958;10.994;2022-09-09T05:43:19;98031.72;;;14.57;100.00
29907;BME280;16776;50.958;10.994;2022-09-09T05:45:46;98030.88;;;14.56;100.00
29907;BME280;16776;50.958;10.994;2022-09-09T05:48:13;98031.72;;;14.57;100.00
29907;BME280;16776;50.958;10.994;2022-09-09T05:50:40;98029.06;;;14.58;100.00
29907;BME280;16776;50.958;10.994;2022-09-09T05:53:07;98033.31;;;14.59;100.00
29907;BME280;16776;50.958;10.994;2022-09-09T05:55:34;98042.75;;;14.60;100.00
29907;BME280;16776;50.958;10.994;2022-09-09T05:58:02;98036.50;;;14.65;100.00
29907;BME280;16776;50.958;10.994;2022-09-09T06:00:29;98039.19;;;14.63;100.00
29907;BME280;16776;50.958;10.994;2022-09-09T06:02:56;98039.09;;;14.65;100.00
29907;BME280;16776;50.958;10.994;2022-09-09T06:05:23;98040.75;;;14.66;100.00
29907;BME280;16776;50.958;10.994;2022-09-09T06:07:52;98040.69;;;14.67;100.00
29907;BME280;16776;50.958;10.994;2022-09-09T06:10:19;98047.47;;;14.70;100.00
29907;BME280;16776;50.958;10.994;2022-09-09T06:12:46;98046.56;;;14.71;100.00
29907;BME280;16776;50.958;10.994;2022-09-09T06:15:13;98050.66;;;14.75;100.00
29907;BME280;16776;50.958;10.994;2022-09-09T06:17:40;98039.44;;;14.74;100.00
29907;BME280;16776;50.958;10.994;2022-09-09T06:20:07;98042.56;;;14.81;100.00
29907;BME280;16776;50.958;10.994;2022-09-09T06:22:35;98041.38;;;14.86;100.00
29907;BME280;16776;50.958;10.994;2022-09-09T06:25:01;98047.84;;;14.95;100.00
29907;BME280;16776;50.958;10.994;2022-09-09T06:27:28;98042.75;;;15.09;100.00
29907;BME280;16776;50.958;10.994;2022-09-09T06:29:55;98053.03;;;15.26;100.00
29907;BME280;16776;50.958;10.994;2022-09-09T06:32:22;98049.38;;;15.46;100.00
29907;BME280;16776;50.958;10.994;2022-09-09T06:34:49;98047.69;;;15.61;100.00
29907;BME280;16776;50.958;10.994;2022-09-09T06:37:15;98049.59;;;15.73;100.00
29907;BME280;16776;50.958;10.994;2022-09-09T06:39:42;98049.88;;;15.83;100.00
29907;BME280;16776;50.958;10.994;2022-09-09T06:42:08;98052.06;;;15.90;100.00
29907;BME280;16776;50.958;10.994;2022-09-09T06:44:35;98042.31;;;15.94;100.00
29907;BME280;16776;50.958;10.994;2022-09-09T06:47:01;98048.19;;;15.97;100.00
29907;BME280;16776;50.958;10.994;2022-09-09T06:49:29;98052.09;;;16.04;100.00
29907;BME280;16776;50.958;10.994;2022-09-09T06:51:56;98051.19;;;16.05;100.00
29907;BME280;16776;50.958;10.994;2022-09-09T06:54:22;98056.19;;;16.08;100.00
29907;BME280;16776;50.958;10.994;2022-09-09T06:56:50;98061.28;;;16.10;100.00
29907;BME280;16776;50.958;10.994;2022-09-09T06:59:17;98055.44;;;16.06;100.00
29907;BME280;16776;50.958;10.994;2022-09-09T07:01:43;98059.53;;;16.10;100.00
29907;BME280;16776;50.958;10.994;2022-09-09T07:04:10;98045.22;;;16.03;100.00
29907;BME280;16776;50.958;10.994;2022-09-09T07:06:41;98059.84;;;16.20;100.00
29907;BME280;16776;50.958;10.994;2022-09-09T07:09:10;98058.00;;;16.22;100.00
29907;BME280;16776;50.958;10.994;2022-09-09T07:11:38;98063.69;;;16.29;100.00
29907;BME280;16776;50.958;10.994;2022-09-09T07:14:06;98042.50;;;16.20;100.00
29907;BME280;16776;50.958;10.994;2022-09-09T07:16:34;98058.69;;;16.40;100.00
29907;BME280;16776;50.958;10.994;2022-09-09T07:19:02;98069.25;;;16.51;100.00
29907;BME280;16776;50.958;10.994;2022-09-09T07:21:30;98053.50;;;16.68;100.00
29907;BME280;16776;50.958;10.994;2022-09-09T07:23:58;98059.97;;;16.89;100.00
29907;BME280;16776;50.958;10.994;2022-09-09T07:26:27;98061.38;;;17.09;100.00
29907;BME280;16776;50.958;10.994;2022-09-09T07:28:55;98060.53;;;17.23;100.00
29907;BME280;16776;50.958;10.994;2022-09-09T07:31:23;98058.19;;;17.32;100.00
29907;BME280;16776;50.958;10.994;2022-09-09T07:33:51;98053.31;;;17.40;100.00
29907;BME280;16776;50.958;10.994;2022-09-09T07:36:20;98053.28;;;17.55;100.00
29907;BME280;16776;50.958;10.994;2022-09-09T07:38:50;98055.94;;;17.67;100.00
29907;BME280;16776;50.958;10.994;2022-09-09T07:41:20;98064.25;;;17.87;100.00
29907;BME280;16776;50.958;10.994;2022-09-09T07:43:48;98065.22;;;17.98;100.00
29907;BME280;16776;50.958;10.994;2022-09-09T07:46:17;98062.63;;;18.11;100.00
29907;BME280;16776;50.958;10.994;2022-09-09T07:48:48;98049.31;;;18.15;100.00
29907;BME280;16776;50.958;10.994;2022-09-09T07:51:17;98058.81;;;18.29;100.00
29907;BME280;16776;50.958;10.994;2022-09-09T07:53:45;98059.88;;;18.39;100.00
29907;BME280;16776;50.958;10.994;2022-09-09T07:56:16;98063.16;;;18.55;100.00
29907;BME280;16776;50.958;10.994;2022-09-09T07:58:46;98054.34;;;18.69;100.00
29907;BME280;16776;50.958;10.994;2022-09-09T08:01:16;98057.19;;;18.79;100.00
29907;BME280;16776;50.958;10.994;2022-09-09T08:03:43;98054.97;;;18.85;100.00
29907;BME280;16776;50.958;10.994;2022-09-09T08:06:10;98062.88;;;18.96;100.00
29907;BME280;16776;50.958;10.994;2022-09-09T08:08:38;98074.97;;;19.10;100.00
29907;BME280;16776;50.958;10.994;2022-09-09T08:11:09;98070.50;;;19.25;100.00
29907;BME280;16776;50.958;10.994;2022-09-09T08:13:41;98056.13;;;19.43;100.00
29907;BME280;16776;50.958;10.994;2022-09-09T08:16:11;98068.78;;;19.60;100.00
29907;BME280;16776;50.958;10.994;2022-09-09T08:18:40;98068.50;;;19.76;100.00
29907;BME280;16776;50.958;10.994;2022-09-09T08:21:09;98064.69;;;19.93;100.00
29907;BME280;16776;50.958;10.994;2022-09-09T08:23:37;98065.34;;;20.07;100.00
29907;BME280;16776;50.958;10.994;2022-09-09T08:26:05;98068.72;;;20.21;100.00
29907;BME280;16776;50.958;10.994;2022-09-09T08:28:34;98065.38;;;20.30;100.00
29907;BME280;16776;50.958;10.994;2022-09-09T08:31:10;98063.28;;;20.46;100.00
29907;BME280;16776;50.958;10.994;2022-09-09T08:33:37;98070.06;;;20.48;100.00
29907;BME280;16776;50.958;10.994;2022-09-09T08:36:05;98069.41;;;20.58;100.00
29907;BME280;16776;50.958;10.994;2022-09-09T08:38:32;98046.41;;;20.50;100.00
29907;BME280;16776;50.958;10.994;2022-09-09T08:41:07;98067.88;;;20.77;100.00
29907;BME280;16776;50.958;10.994;2022-09-09T08:43:37;98070.22;;;20.80;100.00
29907;BME280;16776;50.958;10.994;2022-09-09T08:46:07;98072.50;;;20.96;100.00
29907;BME280;16776;50.958;10.994;2022-09-09T08:48:47;98075.22;;;21.06;100.00
29907;BME280;16776;50.958;10.994;2022-09-09T08:51:18;98078.69;;;21.06;99.64
29907;BME280;16776;50.958;10.994;2022-09-09T08:53:48;98075.25;;;21.17;99.32
29907;BME280;16776;50.958;10.994;2022-09-09T08:56:18;98080.72;;;21.25;99.52
29907;BME280;16776;50.958;10.994;2022-09-09T08:58:49;98085.47;;;21.31;99.89
29907;BME280;16776;50.958;10.994;2022-09-09T09:01:44;98088.28;;;21.50;100.00
29907;BME280;16776;50.958;10.994;2022-09-09T09:04:30;98090.06;;;21.61;99.32
29907;BME280;16776;50.958;10.994;2022-09-09T09:07:06;98088.16;;;21.63;99.24
29907;BME280;16776;50.958;10.994;2022-09-09T09:09:39;98086.94;;;21.67;98.51
29907;BME280;16776;50.958;10.994;2022-09-09T09:12:15;98088.34;;;21.71;99.03
29907;BME280;16776;50.958;10.994;2022-09-09T09:14:43;98084.44;;;21.65;98.38
29907;BME280;16776;50.958;10.994;2022-09-09T09:17:14;98080.75;;;21.68;98.40
29907;BME280;16776;50.958;10.994;2022-09-09T09:19:43;98093.59;;;21.71;97.76
29907;BME280;16776;50.958;10.994;2022-09-09T09:22:17;98101.78;;;21.78;98.78
29907;BME280;16776;50.958;10.994;2022-09-09T09:24:51;98088.31;;;21.82;97.42
29907;BME280;16776;50.958;10.994;2022-09-09T09:27:25;98086.06;;;21.89;97.95
29907;BME280;16776;50.958;10.994;2022-09-09T09:29:54;98101.91;;;21.87;96.18
29907;BME280;16776;50.958;10.994;2022-09-09T09:32:23;98105.13;;;21.91;96.97
29907;BME280;16776;50.958;10.994;2022-09-09T09:34:54;98093.06;;;21.99;97.20
29907;BME280;16776;50.958;10.994;2022-09-09T09:37:26;98099.31;;;22.08;96.79
29907;BME280;16776;50.958;10.994;2022-09-09T09:39:54;98100.16;;;22.08;96.51
29907;BME280;16776;50.958;10.994;2022-09-09T09:42:21;98092.88;;;22.12;96.41
29907;BME280;16776;50.958;10.994;2022-09-09T09:44:48;98079.19;;;22.08;96.44
29907;BME280;16776;50.958;10.994;2022-09-09T09:47:16;98094.03;;;22.19;96.17
29907;BME280;16776;50.958;10.994;2022-09-09T09:49:53;98094.38;;;22.26;95.63
29907;BME280;16776;50.958;10.994;2022-09-09T09:52:22;98100.88;;;22.10;95.51
29907;BME280;16776;50.958;10.994;2022-09-09T09:54:50;98096.63;;;21.98;95.21
29907;BME280;16776;50.958;10.994;2022-09-09T09:57:18;98099.50;;;21.84;94.69
29907;BME280;16776;50.958;10.994;2022-09-09T09:59:45;98094.09;;;21.65;94.76
29907;BME280;16776;50.958;10.994;2022-09-09T10:02:15;98087.34;;;21.51;95.64
29907;BME280;16776;50.958;10.994;2022-09-09T10:04:42;98087.75;;;21.36;95.58
29907;BME280;16776;50.958;10.994;2022-09-09T10:07:13;98096.78;;;21.31;95.84
29907;BME280;16776;50.958;10.994;2022-09-09T10:09:43;98098.91;;;21.15;95.95
29907;BME280;16776;50.958;10.994;2022-09-09T10:12:19;98090.44;;;21.12;95.77
29907;BME280;16776;50.958;10.994;2022-09-09T10:14:57;98089.50;;;21.02;95.63
29907;BME280;16776;50.958;10.994;2022-09-09T10:17:30;98083.34;;;20.91;95.44
29907;BME280;16776;50.958;10.994;2022-09-09T10:20:16;98083.56;;;20.88;95.57
29907;BME280;16776;50.958;10.994;2022-09-09T10:22:50;98083.31;;;20.80;96.44
29907;BME280;16776;50.958;10.994;2022-09-09T10:25:25;98057.97;;;20.70;97.17
29907;BME280;16776;50.958;10.994;2022-09-09T10:28:10;98071.44;;;20.87;97.51
29907;BME280;16776;50.958;10.994;2022-09-09T10:30:50;98072.25;;;20.88;97.55
29907;BME280;16776;50.958;10.994;2022-09-09T10:33:21;98071.09;;;20.92;96.31
29907;BME280;16776;50.958;10.994;2022-09-09T10:35:58;98076.19;;;20.93;96.54
29907;BME280;16776;50.958;10.994;2022-09-09T10:38:38;98075.25;;;20.94;95.94
29907;BME280;16776;50.958;10.994;2022-09-09T10:41:12;98073.81;;;20.90;95.82
29907;BME280;16776;50.958;10.994;2022-09-09T10:46:45;98063.47;;;20.78;95.69
29907;BME280;16776;50.958;10.994;2022-09-09T10:49:24;98052.75;;;20.70;95.69
29907;BME280;16776;50.958;10.994;2022-09-09T10:52:03;98059.28;;;20.64;95.71
29907;BME280;16776;50.958;10.994;2022-09-09T10:54:52;98060.03;;;20.66;95.75
29907;BME280;16776;50.958;10.994;2022-09-09T10:57:27;98065.44;;;20.52;94.71
29907;BME280;16776;50.958;10.994;2022-09-09T10:59:58;98059.94;;;20.44;95.44
29907;BME280;16776;50.958;10.994;2022-09-09T11:02:31;98062.31;;;20.36;94.69
29907;BME280;16776;50.958;10.994;2022-09-09T11:05:02;98066.59;;;20.37;94.97
29907;BME280;16776;50.958;10.994;2022-09-09T11:07:36;98067.78;;;20.33;94.46
29907;BME280;16776;50.958;10.994;2022-09-09T11:10:16;98056.59;;;20.31;94.46
29907;BME280;16776;50.958;10.994;2022-09-09T11:12:46;98060.25;;;20.17;94.42
29907;BME280;16776;50.958;10.994;2022-09-09T11:15:18;98054.63;;;20.10;93.98
29907;BME280;16776;50.958;10.994;2022-09-09T11:17:49;98063.88;;;20.03;93.88
29907;BME280;16776;50.958;10.994;2022-09-09T11:20:16;98061.97;;;19.94;93.71
29907;BME280;16776;50.958;10.994;2022-09-09T11:22:47;98080.00;;;19.97;94.13
29907;BME280;16776;50.958;10.994;2022-09-09T11:25:19;98080.25;;;19.94;94.56
29907;BME280;16776;50.958;10.994;2022-09-09T11:27:56;98076.91;;;19.92;93.41
29907;BME280;16776;50.958;10.994;2022-09-09T11:30:34;98076.50;;;19.86;93.58
29907;BME280;16776;50.958;10.994;2022-09-09T11:33:21;98076.50;;;19.86;93.63
29907;BME280;16776;50.958;10.994;2022-09-09T11:36:17;98077.78;;;19.80;94.03
29907;BME280;16776;50.958;10.994;2022-09-09T11:38:50;98076.28;;;19.65;94.45
29907;BME280;16776;50.958;10.994;2022-09-09T11:41:20;98080.06;;;19.61;94.27
29907;BME280;16776;50.958;10.994;2022-09-09T11:43:49;98073.50;;;19.55;94.56
29907;BME280;16776;50.958;10.994;2022-09-09T11:46:20;98081.44;;;19.54;94.72
29907;BME280;16776;50.958;10.994;2022-09-09T11:48:58;98083.97;;;19.55;94.40
29907;BME280;16776;50.958;10.994;2022-09-09T11:51:28;98085.69;;;19.44;94.80
29907;BME280;16776;50.958;10.994;2022-09-09T11:53:58;98090.16;;;19.42;94.85
29907;BME280;16776;50.958;10.994;2022-09-09T11:56:30;98091.00;;;19.42;94.73
29907;BME280;16776;50.958;10.994;2022-09-09T11:59:00;98089.03;;;19.33;94.87
29907;BME280;16776;50.958;10.994;2022-09-09T12:01:36;98088.88;;;19.23;95.20
29907;BME280;16776;50.958;10.994;2022-09-09T12:04:16;98088.97;;;19.22;95.54
29907;BME280;16776;50.958;10.994;2022-09-09T12:06:45;98080.53;;;19.06;95.80
29907;BME280;16776;50.958;10.994;2022-09-09T12:09:31;98069.16;;;19.07;95.94
29907;BME280;16776;50.958;10.994;2022-09-09T12:12:22;98068.59;;;19.02;97.52
29907;BME280;16776;50.958;10.994;2022-09-09T12:15:03;98074.66;;;19.02;97.74
29907;BME280;16776;50.958;10.994;2022-09-09T12:17:47;98067.78;;;19.01;98.38
29907;BME280;16776;50.958;10.994;2022-09-09T12:20:18;98066.94;;;19.13;98.85
29907;BME280;16776;50.958;10.994;2022-09-09T12:22:52;98063.88;;;19.32;97.77
29907;BME280;16776;50.958;10.994;2022-09-09T12:25:28;98060.25;;;19.46;97.10
29907;BME280;16776;50.958;10.994;2022-09-09T12:28:09;98060.09;;;19.60;97.62
29907;BME280;16776;50.958;10.994;2022-09-09T12:30:46;98062.16;;;19.67;97.04
29907;BME280;16776;50.958;10.994;2022-09-09T12:33:17;98065.91;;;19.76;94.99
29907;BME280;16776;50.958;10.994;2022-09-09T12:35:49;98065.94;;;19.87;94.44
29907;BME280;16776;50.958;10.994;2022-09-09T12:38:23;98065.53;;;19.93;94.05
29907;BME280;16776;50.958;10.994;2022-09-09T12:40:55;98059.56;;;19.91;93.62
29907;BME280;16776;50.958;10.994;2022-09-09T12:43:25;98069.06;;;19.92;93.15
29907;BME280;16776;50.958;10.994;2022-09-09T12:45:55;98062.19;;;19.91;93.05
29907;BME280;16776;50.958;10.994;2022-09-09T12:48:28;98057.16;;;19.88;93.22
29907;BME280;16776;50.958;10.994;2022-09-09T12:50:57;98058.75;;;19.78;92.76
29907;BME280;16776;50.958;10.994;2022-09-09T12:53:26;98053.53;;;19.78;93.31
29907;BME280;16776;50.958;10.994;2022-09-09T12:55:58;98065.06;;;19.75;93.05
29907;BME280;16776;50.958;10.994;2022-09-09T12:58:27;98059.34;;;19.70;92.96
29907;BME280;16776;50.958;10.994;2022-09-09T13:00:58;98050.88;;;19.67;93.05
29907;BME280;16776;50.958;10.994;2022-09-09T13:03:25;98061.81;;;19.72;93.24